createdAt,value
2022-12-12T00:01:04.683Z,26.08
2022-12-12T00:03:54.013Z,25.42
2022-12-12T00:06:41.998Z,25.83
2022-12-12T00:09:30.006Z,22.42
2022-12-12T00:12:17.988Z,23.85
2022-12-12T00:15:06.748Z,24.23
2022-12-12T00:17:56.345Z,27.08
2022-12-12T00:20:44.101Z,23.38
2022-12-12T00:23:32.165Z,23.42
2022-12-12T00:26:24.495Z,24.92
2022-12-12T00:29:12.791Z,24.90
2022-12-12T00:32:00.819Z,22.73
2022-12-12T00:34:50.319Z,26.95
2022-12-12T00:37:38.423Z,27.27
2022-12-12T00:40:26.478Z,27.75
2022-12-12T00:43:14.583Z,26.50
2022-12-12T00:46:03.163Z,20.67
2022-12-12T00:48:51.078Z,23.42
2022-12-12T00:51:40.271Z,24.35
2022-12-12T00:54:28.104Z,24.90
2022-12-12T00:57:16.056Z,26.38
2022-12-12T01:00:04.575Z,26.35
2022-12-12T01:02:52.788Z,25.17
2022-12-12T01:05:40.596Z,25.92
2022-12-12T01:08:29.879Z,27.42
2022-12-12T01:11:19.060Z,24.25
2022-12-12T01:14:07.640Z,21.88
2022-12-12T01:16:55.404Z,26.52
2022-12-12T01:19:43.487Z,24.38
2022-12-12T01:22:31.531Z,23.85
2022-12-12T01:25:21.624Z,22.48
2022-12-12T01:28:10.202Z,25.48
2022-12-12T01:30:58.367Z,21.95
2022-12-12T01:33:47.143Z,21.73
2022-12-12T01:36:35.282Z,23.77
2022-12-12T01:39:23.147Z,26.83
2022-12-12T01:42:15.450Z,27.35
2022-12-12T01:45:03.783Z,24.90
2022-12-12T01:47:51.499Z,26.13
2022-12-12T01:50:40.342Z,26.83
2022-12-12T01:53:30.735Z,28.08
2022-12-12T01:56:22.448Z,25.35
2022-12-12T01:59:16.590Z,21.38
2022-12-12T02:02:07.663Z,27.55
2022-12-12T02:04:55.976Z,25.65
2022-12-12T02:07:44.059Z,24.13
2022-12-12T02:10:32.266Z,26.27
2022-12-12T02:13:25.289Z,23.85
2022-12-12T02:16:26.136Z,26.27
2022-12-12T02:19:37.255Z,26.50
2022-12-12T02:22:38.277Z,28.02
2022-12-12T02:25:49.828Z,28.10
2022-12-12T02:29:00.780Z,24.23
2022-12-12T02:31:55.047Z,27.27
2022-12-12T02:34:50.344Z,24.50
2022-12-12T02:37:46.721Z,27.60
2022-12-12T02:40:41.503Z,25.73
2022-12-12T02:43:35.818Z,27.75
2022-12-12T02:46:33.986Z,24.73
2022-12-12T02:49:28.116Z,28.30
2022-12-12T02:52:20.103Z,24.42
2022-12-12T02:55:08.930Z,25.45
2022-12-12T02:57:57.235Z,29.23
2022-12-12T03:01:11.564Z,27.17
2022-12-12T03:04:22.313Z,26.17
2022-12-12T03:07:38.099Z,29.20
2022-12-12T03:10:44.000Z,25.95
2022-12-12T03:13:56.418Z,25.48
2022-12-12T03:16:50.873Z,27.15
2022-12-12T03:19:43.605Z,27.58
2022-12-12T03:22:41.690Z,27.27
2022-12-12T03:25:36.727Z,25.40
2022-12-12T03:28:47.226Z,28.92
2022-12-12T03:31:41.470Z,30.45
2022-12-12T03:34:35.406Z,24.77
2022-12-12T03:37:26.815Z,30.13
2022-12-12T03:40:20.606Z,26.70
2022-12-12T03:43:15.848Z,28.38
2022-12-12T03:46:10.773Z,29.38
2022-12-12T03:49:04.828Z,26.05
2022-12-12T03:52:00.100Z,33.25
2022-12-12T03:54:53.240Z,25.50
2022-12-12T04:01:00.404Z,26.48
2022-12-12T04:03:57.927Z,28.42
2022-12-12T04:06:51.700Z,26.48
2022-12-12T04:09:57.383Z,26.27
2022-12-12T04:13:03.367Z,25.20
2022-12-12T04:16:05.338Z,25.85
2022-12-12T04:18:59.368Z,27.77
2022-12-12T04:22:15.375Z,26.25
2022-12-12T04:25:10.925Z,27.27
2022-12-12T04:28:06.116Z,26.65
2022-12-12T04:30:54.410Z,33.45
2022-12-12T04:33:51.948Z,27.40
2022-12-12T04:36:42.236Z,27.23
2022-12-12T04:39:31.580Z,27.83
2022-12-12T04:42:24.738Z,32.35
2022-12-12T04:48:06.971Z,29.50
2022-12-12T04:50:56.871Z,28.83
2022-12-12T04:53:49.778Z,29.42
2022-12-12T04:56:43.805Z,26.48
2022-12-12T04:59:32.288Z,26.73
2022-12-12T05:02:32.283Z,29.48
2022-12-12T05:05:26.198Z,27.42
2022-12-12T05:08:21.016Z,30.60
2022-12-12T05:11:09.473Z,27.58
2022-12-12T05:13:57.197Z,29.08
2022-12-12T05:16:48.586Z,27.88
2022-12-12T05:19:37.892Z,30.95
2022-12-12T05:22:26.120Z,28.20
2022-12-12T05:25:14.802Z,27.15
2022-12-12T05:28:02.719Z,27.98
2022-12-12T05:30:53.261Z,28.17
2022-12-12T05:33:41.336Z,31.50
2022-12-12T05:36:30.842Z,33.63
2022-12-12T05:39:19.168Z,31.27
2022-12-12T05:42:07.131Z,33.20
2022-12-12T05:44:55.186Z,32.60
2022-12-12T05:47:50.626Z,30.63
2022-12-12T05:50:38.668Z,28.10
2022-12-12T05:53:27.827Z,32.08
2022-12-12T05:56:15.834Z,30.25
2022-12-12T05:59:03.451Z,31.63
2022-12-12T06:02:06.432Z,28.67
2022-12-12T06:04:54.736Z,33.03
2022-12-12T06:07:42.676Z,27.30
2022-12-12T06:10:32.103Z,31.10
2022-12-12T06:13:19.755Z,29.15
2022-12-12T06:16:08.949Z,28.33
2022-12-12T06:18:57.723Z,25.17
2022-12-12T06:21:50.788Z,25.88
2022-12-12T06:24:38.676Z,28.13
2022-12-12T06:27:28.128Z,28.77
2022-12-12T06:30:16.279Z,26.30
2022-12-12T06:33:04.276Z,25.83
2022-12-12T06:36:00.409Z,27.45
2022-12-12T06:38:48.549Z,28.15
2022-12-12T06:41:36.548Z,23.58
2022-12-12T06:44:25.781Z,25.25
2022-12-12T06:47:13.596Z,23.75
2022-12-12T06:50:04.604Z,26.00
2022-12-12T06:52:52.798Z,27.40
2022-12-12T06:55:43.811Z,26.00
2022-12-12T06:58:31.917Z,23.90
2022-12-12T07:01:25.113Z,25.13
2022-12-12T07:04:14.394Z,24.55
2022-12-12T07:07:02.488Z,22.27
2022-12-12T07:10:23.709Z,24.55
2022-12-12T07:13:11.724Z,25.05
2022-12-12T07:15:59.755Z,24.02
2022-12-12T07:18:52.068Z,25.95
2022-12-12T07:21:40.362Z,25.63
2022-12-12T07:24:28.505Z,23.88
2022-12-12T07:27:21.806Z,24.60
2022-12-12T07:30:12.412Z,22.13
2022-12-12T07:33:15.808Z,24.55
2022-12-12T07:36:06.247Z,24.52
2022-12-12T07:38:59.836Z,24.35
2022-12-12T07:41:47.864Z,25.05
2022-12-12T07:46:03.617Z,25.08
2022-12-12T07:49:49.784Z,21.38
2022-12-12T07:52:42.872Z,25.85
2022-12-12T07:58:20.874Z,23.77
2022-12-12T08:01:15.066Z,24.77
2022-12-12T08:04:06.395Z,23.42
2022-12-12T08:07:01.678Z,22.10
2022-12-12T08:10:01.342Z,24.65
2022-12-12T08:12:49.450Z,22.95
2022-12-12T08:15:37.578Z,23.25
2022-12-12T08:18:25.479Z,23.13
2022-12-12T08:21:23.213Z,24.67
2022-12-12T08:24:15.279Z,19.08
2022-12-12T08:27:05.142Z,26.58
2022-12-12T08:29:53.738Z,21.15
2022-12-12T08:32:41.863Z,23.77
2022-12-12T08:35:32.548Z,20.35
2022-12-12T08:38:20.487Z,21.63
2022-12-12T08:41:09.820Z,20.23
2022-12-12T08:43:59.325Z,23.35
2022-12-12T08:46:47.216Z,22.63
2022-12-12T08:49:36.295Z,19.50
2022-12-12T08:52:24.376Z,21.02
2022-12-12T08:55:12.314Z,21.67
2022-12-12T08:58:00.130Z,19.92
2022-12-12T09:00:49.457Z,23.75
2022-12-12T09:03:37.196Z,25.95
2022-12-12T09:06:27.136Z,22.45
2022-12-12T09:09:15.341Z,22.08
2022-12-12T09:12:03.649Z,25.88
2022-12-12T09:14:51.944Z,22.70
2022-12-12T09:17:41.211Z,22.67
2022-12-12T09:20:29.181Z,37.22
2022-12-12T09:23:17.483Z,30.73
2022-12-12T09:26:09.673Z,28.15
2022-12-12T09:28:57.618Z,32.43
2022-12-12T09:31:45.503Z,28.45
2022-12-12T09:34:35.174Z,32.83
2022-12-12T09:37:23.368Z,31.75
2022-12-12T09:40:19.016Z,29.40
2022-12-12T09:43:07.462Z,33.40
2022-12-12T09:45:55.584Z,33.72
2022-12-12T09:48:46.378Z,30.70
2022-12-12T09:51:37.553Z,29.70
2022-12-12T09:54:27.837Z,35.65
2022-12-12T10:00:59.943Z,23.25
2022-12-12T10:03:57.306Z,24.02
2022-12-12T10:06:52.208Z,22.55
2022-12-12T10:09:54.135Z,34.25
2022-12-12T10:12:42.412Z,28.67
2022-12-12T10:15:36.431Z,28.48
2022-12-12T10:18:29.893Z,35.80
2022-12-12T10:21:22.893Z,36.30
2022-12-12T10:24:24.743Z,36.55
2022-12-12T10:27:18.290Z,25.67
2022-12-12T10:30:16.934Z,26.60
2022-12-12T10:33:17.607Z,25.85
2022-12-12T10:36:16.885Z,27.85
2022-12-12T10:39:17.576Z,26.63
2022-12-12T10:42:14.022Z,21.88
2022-12-12T10:45:24.709Z,23.45
2022-12-12T10:48:12.960Z,26.02
2022-12-12T10:51:04.495Z,23.90
2022-12-12T10:53:55.429Z,26.23
2022-12-12T10:57:06.129Z,26.70
2022-12-12T10:59:58.548Z,25.10
2022-12-12T11:02:48.850Z,22.05
2022-12-12T11:05:40.770Z,24.67
2022-12-12T11:08:33.543Z,24.45
2022-12-12T11:11:23.566Z,21.35
2022-12-12T11:14:28.383Z,22.95
2022-12-12T11:17:28.071Z,22.73
2022-12-12T11:20:20.362Z,23.27
2022-12-12T11:23:18.473Z,20.10
2022-12-12T11:26:13.351Z,21.90
2022-12-12T11:29:07.809Z,22.38
2022-12-12T11:31:57.370Z,22.13
2022-12-12T11:34:50.387Z,21.00
2022-12-12T11:40:41.955Z,21.92
2022-12-12T11:43:31.614Z,22.05
2022-12-12T11:46:23.104Z,21.42
2022-12-12T11:49:21.018Z,19.45
2022-12-12T11:52:21.396Z,27.33
2022-12-12T11:55:16.006Z,22.50
2022-12-12T11:58:21.398Z,24.42
2022-12-12T12:01:16.966Z,24.83
2022-12-12T12:04:26.760Z,25.02
2022-12-12T12:07:31.995Z,22.13
2022-12-12T12:10:40.731Z,24.20
2022-12-12T12:13:50.016Z,27.30
2022-12-12T12:16:49.861Z,25.95
2022-12-12T12:19:46.502Z,22.13
2022-12-12T12:22:48.795Z,25.10
2022-12-12T12:25:45.265Z,24.50
2022-12-12T12:28:59.100Z,24.98
2022-12-12T12:31:58.713Z,23.63
2022-12-12T12:35:00.570Z,23.58
2022-12-12T12:38:07.052Z,24.75
2022-12-12T12:41:22.420Z,26.30
2022-12-12T12:44:23.873Z,23.05
2022-12-12T12:47:22.964Z,25.17
2022-12-12T12:50:22.739Z,23.17
2022-12-12T12:53:26.750Z,24.13
2022-12-12T12:56:26.926Z,21.85
2022-12-12T12:59:19.467Z,22.90
2022-12-12T13:02:26.949Z,20.75
2022-12-12T13:05:21.854Z,22.05
2022-12-12T13:08:21.043Z,21.65
2022-12-12T13:11:11.712Z,22.60
2022-12-12T13:14:10.819Z,21.42
2022-12-12T13:17:06.377Z,21.98
2022-12-12T13:19:57.498Z,21.23
2022-12-12T13:22:58.435Z,23.63
2022-12-12T13:25:55.510Z,20.65
2022-12-12T13:28:48.693Z,19.05
2022-12-12T13:32:01.771Z,21.65
2022-12-12T13:34:52.558Z,21.42
2022-12-12T13:37:48.848Z,20.38
2022-12-12T13:40:42.414Z,23.60
2022-12-12T13:43:42.443Z,20.13
2022-12-12T13:46:43.139Z,23.58
2022-12-12T13:49:40.332Z,20.30
2022-12-12T13:52:33.250Z,20.75
2022-12-12T13:58:32.569Z,20.30
2022-12-12T14:01:40.469Z,22.58
2022-12-12T14:04:30.888Z,22.27
2022-12-12T14:07:23.739Z,25.75
2022-12-12T14:10:25.978Z,22.88
2022-12-12T14:13:19.514Z,20.70
2022-12-12T14:19:08.741Z,22.08
2022-12-12T14:21:57.148Z,19.65
2022-12-12T14:24:59.410Z,17.48
2022-12-12T14:28:19.168Z,19.55
2022-12-12T14:31:15.927Z,18.70
2022-12-12T14:34:17.518Z,22.00
2022-12-12T14:37:37.388Z,18.30
2022-12-12T14:40:30.658Z,19.02
2022-12-12T14:43:25.360Z,17.52
2022-12-12T14:46:17.333Z,18.58
2022-12-12T14:49:06.816Z,21.98
2022-12-12T14:51:58.935Z,25.90
2022-12-12T14:54:46.709Z,26.40
2022-12-12T14:57:35.529Z,23.95
2022-12-12T15:00:25.536Z,25.90
2022-12-12T15:03:14.725Z,28.42
2022-12-12T15:06:30.934Z,21.58
2022-12-12T15:09:24.535Z,20.63
2022-12-12T15:12:18.760Z,19.95
2022-12-12T15:15:23.028Z,20.85
2022-12-12T15:18:13.076Z,23.63
2022-12-12T15:21:01.183Z,22.35
2022-12-12T15:23:49.109Z,21.30
2022-12-12T15:26:37.097Z,21.25
2022-12-12T15:29:27.074Z,23.52
2022-12-12T15:32:20.522Z,22.35
2022-12-12T15:35:18.104Z,21.38
2022-12-12T15:38:12.620Z,16.50
2022-12-12T15:41:06.645Z,20.33
2022-12-12T15:43:58.002Z,20.27
2022-12-12T15:46:47.399Z,16.98
2022-12-12T15:49:40.305Z,15.85
2022-12-12T15:55:24.832Z,22.80
2022-12-12T15:58:29.170Z,20.98
2022-12-12T16:01:22.274Z,21.08
2022-12-12T16:07:22.301Z,18.70
2022-12-12T16:10:29.565Z,22.50
2022-12-12T16:13:26.276Z,25.30
2022-12-12T16:16:37.407Z,19.65
2022-12-12T16:19:37.927Z,22.73
2022-12-12T16:22:33.649Z,20.83
2022-12-12T16:25:23.612Z,20.88
2022-12-12T16:28:24.975Z,21.58
2022-12-12T16:31:18.399Z,21.55
2022-12-12T16:34:06.540Z,23.45
2022-12-12T16:36:54.490Z,20.98
2022-12-12T16:39:42.548Z,24.38
2022-12-12T16:42:30.856Z,27.55
2022-12-12T16:45:20.452Z,27.65
2022-12-12T16:48:15.884Z,31.45
2022-12-12T16:51:06.210Z,29.70
2022-12-12T16:53:54.386Z,28.00
2022-12-12T16:56:42.485Z,24.40
2022-12-12T16:59:30.527Z,29.80
2022-12-12T17:02:22.793Z,29.15
2022-12-12T17:05:18.439Z,29.60
2022-12-12T17:08:06.847Z,32.55
2022-12-12T17:11:09.916Z,33.13
2022-12-12T17:13:58.986Z,30.15
2022-12-12T17:16:46.843Z,30.65
2022-12-12T17:19:36.233Z,30.58
2022-12-12T17:22:24.162Z,29.90
2022-12-12T17:25:12.431Z,30.25
2022-12-12T17:28:01.112Z,25.60
2022-12-12T17:30:50.849Z,29.65
2022-12-12T17:33:49.473Z,27.33
2022-12-12T17:36:39.596Z,29.95
2022-12-12T17:39:27.425Z,27.45
2022-12-12T17:42:15.498Z,25.45
2022-12-12T17:45:03.430Z,23.77
2022-12-12T17:47:53.328Z,25.23
2022-12-12T17:50:42.028Z,29.38
2022-12-12T17:53:36.620Z,23.75
2022-12-12T17:56:29.993Z,27.80
2022-12-12T17:59:21.428Z,22.42
2022-12-12T18:02:13.223Z,27.25
2022-12-12T18:05:04.134Z,22.00
2022-12-12T18:07:51.854Z,21.83
2022-12-12T18:10:41.311Z,26.00
2022-12-12T18:13:29.525Z,22.60
2022-12-12T18:16:36.479Z,22.42
2022-12-12T18:19:27.198Z,24.10
2022-12-12T18:22:15.002Z,22.45
2022-12-12T18:25:03.164Z,23.42
2022-12-12T18:28:01.322Z,22.25
2022-12-12T18:30:51.133Z,25.40
2022-12-12T18:33:39.166Z,25.45
2022-12-12T18:36:30.033Z,22.73
2022-12-12T18:39:18.343Z,24.48
2022-12-12T18:42:06.651Z,24.20
2022-12-12T18:44:56.055Z,23.50
2022-12-12T18:47:47.727Z,25.65
2022-12-12T18:50:35.651Z,28.05
2022-12-12T18:53:23.879Z,26.38
2022-12-12T18:56:14.876Z,28.58
2022-12-12T18:59:04.409Z,27.63
2022-12-12T19:01:53.951Z,29.70
2022-12-12T19:04:44.258Z,25.73
2022-12-12T19:07:32.448Z,27.40
2022-12-12T19:10:20.345Z,31.55
2022-12-12T19:13:08.177Z,22.92
2022-12-12T19:15:57.915Z,25.40
2022-12-12T19:18:47.887Z,25.30
2022-12-12T19:21:36.397Z,25.63
2022-12-12T19:24:24.199Z,30.25
2022-12-12T19:27:12.491Z,28.25
2022-12-12T19:30:00.499Z,26.48
2022-12-12T19:32:49.080Z,27.58
2022-12-12T19:35:39.463Z,29.33
2022-12-12T19:38:27.433Z,22.38
2022-12-12T19:41:17.010Z,24.08
2022-12-12T19:44:08.782Z,24.25
2022-12-12T19:46:56.994Z,26.17
2022-12-12T19:49:44.730Z,25.73
2022-12-12T19:52:34.190Z,23.20
2022-12-12T19:55:21.920Z,26.25
2022-12-12T19:58:10.035Z,23.30
2022-12-12T20:00:58.085Z,24.58
2022-12-12T20:03:50.895Z,29.35
2022-12-12T20:06:45.548Z,26.40
2022-12-12T20:09:36.943Z,27.98
2022-12-12T20:12:24.806Z,33.90
2022-12-12T20:15:12.985Z,31.58
2022-12-12T20:18:02.118Z,28.38
2022-12-12T20:20:53.766Z,25.60
2022-12-12T20:23:47.025Z,25.17
2022-12-12T20:26:36.677Z,23.70
2022-12-12T20:29:24.611Z,27.25
2022-12-12T20:32:13.756Z,22.95
2022-12-12T20:35:01.721Z,28.42
2022-12-12T20:37:49.818Z,25.38
2022-12-12T20:40:40.658Z,23.88
2022-12-12T20:43:30.827Z,26.20
2022-12-12T20:46:21.464Z,26.80
2022-12-12T20:49:11.836Z,25.77
2022-12-12T20:51:59.952Z,21.33
2022-12-12T20:54:48.092Z,25.60
2022-12-12T20:57:36.018Z,24.92
2022-12-12T21:00:26.667Z,23.33
2022-12-12T21:03:14.822Z,25.88
2022-12-12T21:06:02.921Z,22.10
2022-12-12T21:08:52.155Z,26.73
2022-12-12T21:11:42.639Z,24.42
2022-12-12T21:14:32.933Z,24.33
2022-12-12T21:17:22.449Z,20.75
2022-12-12T21:20:10.870Z,21.83
2022-12-12T21:22:59.392Z,30.30
2022-12-12T21:25:47.081Z,24.65
2022-12-12T21:28:35.384Z,21.63
2022-12-12T21:31:25.563Z,22.98
2022-12-12T21:34:16.479Z,20.20
2022-12-12T21:37:04.133Z,22.77
2022-12-12T21:39:54.599Z,24.02
2022-12-12T21:42:42.366Z,22.90
2022-12-12T21:45:30.590Z,22.58
2022-12-12T21:48:18.529Z,25.20
2022-12-12T21:51:10.597Z,24.15
2022-12-12T21:53:58.381Z,21.95
2022-12-12T21:56:46.980Z,26.58
2022-12-12T21:59:37.289Z,23.10
2022-12-12T22:02:25.291Z,26.17
2022-12-12T22:05:13.405Z,25.90
2022-12-12T22:08:03.858Z,23.27
2022-12-12T22:10:54.483Z,25.10
2022-12-12T22:13:43.517Z,22.77
2022-12-12T22:16:33.682Z,28.05
2022-12-12T22:19:21.797Z,22.90
2022-12-12T22:22:09.511Z,24.40
2022-12-12T22:24:58.895Z,22.33
2022-12-12T22:27:46.512Z,21.35
2022-12-12T22:30:34.567Z,21.58
2022-12-12T22:33:22.835Z,22.17
2022-12-12T22:36:12.718Z,26.58
2022-12-12T22:39:01.653Z,20.85
2022-12-12T22:41:53.555Z,24.05
2022-12-12T22:44:41.530Z,23.42
2022-12-12T22:47:29.548Z,19.90
2022-12-12T22:50:18.090Z,18.58
2022-12-12T22:53:06.195Z,23.83
2022-12-12T22:55:54.054Z,22.48
2022-12-12T22:58:43.989Z,22.52
2022-12-12T23:01:32.491Z,20.33
2022-12-12T23:04:20.553Z,26.73
2022-12-12T23:07:08.388Z,23.42
2022-12-12T23:09:58.933Z,20.80
2022-12-12T23:12:47.078Z,23.85
2022-12-12T23:15:42.375Z,25.98
2022-12-12T23:18:30.343Z,25.08
2022-12-12T23:21:20.912Z,22.05
2022-12-12T23:24:09.659Z,21.92
2022-12-12T23:26:57.673Z,18.40
2022-12-12T23:29:46.296Z,21.33
2022-12-12T23:32:35.925Z,25.25
2022-12-12T23:35:24.005Z,23.10
2022-12-12T23:38:11.946Z,21.08
2022-12-12T23:41:04.669Z,22.92
2022-12-12T23:43:52.751Z,22.63
2022-12-12T23:46:41.023Z,21.95
2022-12-12T23:49:30.314Z,23.15
2022-12-12T23:52:18.300Z,21.63
2022-12-12T23:55:10.096Z,24.42
2022-12-12T23:57:58.145Z,22.88
